sensor_id;sensor_type;location;lat;lon;timestamp;temperature;humidity
78463;SHT31;67756;51.982;5.648;2023-05-10T00:02:22;16.0;78.5
78463;SHT31;67756;51.982;5.648;2023-05-10T00:04:51;16.0;78.0
78463;SHT31;67756;51.982;5.648;2023-05-10T00:07:19;16.0;77.8
78463;SHT31;67756;51.982;5.648;2023-05-10T00:09:48;15.9;78.4
78463;SHT31;67756;51.982;5.648;2023-05-10T00:12:16;15.9;77.8
78463;SHT31;67756;51.982;5.648;2023-05-10T00:14:45;15.9;77.8
78463;SHT31;67756;51.982;5.648;2023-05-10T00:17:15;15.9;79.0
78463;SHT31;67756;51.982;5.648;2023-05-10T00:19:44;15.9;78.9
78463;SHT31;67756;51.982;5.648;2023-05-10T00:22:12;16.0;78.5
78463;SHT31;67756;51.982;5.648;2023-05-10T00:24:40;16.0;78.8
78463;SHT31;67756;51.982;5.648;2023-05-10T00:27:09;16.0;78.4
78463;SHT31;67756;51.982;5.648;2023-05-10T00:29:37;16.0;78.0
78463;SHT31;67756;51.982;5.648;2023-05-10T00:32:06;16.0;77.5
78463;SHT31;67756;51.982;5.648;2023-05-10T00:34:34;16.0;77.9
78463;SHT31;67756;51.982;5.648;2023-05-10T00:37:03;16.0;77.8
78463;SHT31;67756;51.982;5.648;2023-05-10T00:39:31;16.0;78.7
78463;SHT31;67756;51.982;5.648;2023-05-10T00:42:00;16.0;78.1
78463;SHT31;67756;51.982;5.648;2023-05-10T00:44:28;16.0;78.1
78463;SHT31;67756;51.982;5.648;2023-05-10T00:46:58;16.0;78.1
78463;SHT31;67756;51.982;5.648;2023-05-10T00:49:30;16.0;77.5
78463;SHT31;67756;51.982;5.648;2023-05-10T00:51:58;15.9;77.8
78463;SHT31;67756;51.982;5.648;2023-05-10T00:54:28;15.9;78.0
78463;SHT31;67756;51.982;5.648;2023-05-10T00:56:57;16.0;78.2
78463;SHT31;67756;51.982;5.648;2023-05-10T00:59:25;16.0;78.2
78463;SHT31;67756;51.982;5.648;2023-05-10T01:01:54;16.0;78.2
78463;SHT31;67756;51.982;5.648;2023-05-10T01:04:25;16.0;77.9
78463;SHT31;67756;51.982;5.648;2023-05-10T01:06:54;16.0;78.4
78463;SHT31;67756;51.982;5.648;2023-05-10T01:09:23;16.0;79.2
78463;SHT31;67756;51.982;5.648;2023-05-10T01:11:53;16.0;78.1
78463;SHT31;67756;51.982;5.648;2023-05-10T01:14:23;16.0;78.3
78463;SHT31;67756;51.982;5.648;2023-05-10T01:16:53;16.1;77.9
78463;SHT31;67756;51.982;5.648;2023-05-10T01:19:23;16.1;78.6
78463;SHT31;67756;51.982;5.648;2023-05-10T01:22:02;16.1;78.2
78463;SHT31;67756;51.982;5.648;2023-05-10T01:25:15;16.1;78.6
78463;SHT31;67756;51.982;5.648;2023-05-10T01:28:03;16.2;78.5
78463;SHT31;67756;51.982;5.648;2023-05-10T01:31:16;16.2;78.5
78463;SHT31;67756;51.982;5.648;2023-05-10T01:33:52;16.4;77.5
78463;SHT31;67756;51.982;5.648;2023-05-10T01:36:29;16.4;77.1
78463;SHT31;67756;51.982;5.648;2023-05-10T01:39:04;16.4;76.4
78463;SHT31;67756;51.982;5.648;2023-05-10T01:41:42;16.4;76.6
78463;SHT31;67756;51.982;5.648;2023-05-10T01:44:18;16.4;76.8
78463;SHT31;67756;51.982;5.648;2023-05-10T01:47:01;16.4;76.1
78463;SHT31;67756;51.982;5.648;2023-05-10T01:49:32;16.4;76.9
78463;SHT31;67756;51.982;5.648;2023-05-10T01:52:07;16.4;76.2
78463;SHT31;67756;51.982;5.648;2023-05-10T01:54:42;16.4;76.4
78463;SHT31;67756;51.982;5.648;2023-05-10T01:57:14;16.4;77.5
78463;SHT31;67756;51.982;5.648;2023-05-10T01:59:50;16.4;77.5
78463;SHT31;67756;51.982;5.648;2023-05-10T02:02:20;16.4;76.6
78463;SHT31;67756;51.982;5.648;2023-05-10T02:04:50;16.4;77.0
78463;SHT31;67756;51.982;5.648;2023-05-10T02:07:21;16.4;76.9
78463;SHT31;67756;51.982;5.648;2023-05-10T02:09:52;16.4;76.6
78463;SHT31;67756;51.982;5.648;2023-05-10T02:12:24;16.4;76.8
78463;SHT31;67756;51.982;5.648;2023-05-10T02:14:53;16.3;77.4
78463;SHT31;67756;51.982;5.648;2023-05-10T02:17:23;16.3;76.4
78463;SHT31;67756;51.982;5.648;2023-05-10T02:19:55;16.3;76.7
78463;SHT31;67756;51.982;5.648;2023-05-10T02:22:25;16.3;76.8
78463;SHT31;67756;51.982;5.648;2023-05-10T02:24:58;16.4;76.7
78463;SHT31;67756;51.982;5.648;2023-05-10T02:27:29;16.4;76.1
78463;SHT31;67756;51.982;5.648;2023-05-10T02:29:58;16.4;75.9
78463;SHT31;67756;51.982;5.648;2023-05-10T02:32:29;16.4;75.7
78463;SHT31;67756;51.982;5.648;2023-05-10T02:35:03;16.4;76.8
78463;SHT31;67756;51.982;5.648;2023-05-10T02:37:33;16.4;75.9
78463;SHT31;67756;51.982;5.648;2023-05-10T02:40:04;16.5;75.6
78463;SHT31;67756;51.982;5.648;2023-05-10T02:42:36;16.5;75.6
78463;SHT31;67756;51.982;5.648;2023-05-10T02:45:10;16.5;75.7
78463;SHT31;67756;51.982;5.648;2023-05-10T02:47:40;16.5;75.4
78463;SHT31;67756;51.982;5.648;2023-05-10T02:50:10;16.5;75.0
78463;SHT31;67756;51.982;5.648;2023-05-10T02:52:44;16.5;74.6
78463;SHT31;67756;51.982;5.648;2023-05-10T02:55:19;16.6;74.6
78463;SHT31;67756;51.982;5.648;2023-05-10T02:57:54;16.6;74.0
78463;SHT31;67756;51.982;5.648;2023-05-10T03:00:26;16.5;73.4
78463;SHT31;67756;51.982;5.648;2023-05-10T03:02:54;16.5;73.5
78463;SHT31;67756;51.982;5.648;2023-05-10T03:05:23;16.5;73.6
78463;SHT31;67756;51.982;5.648;2023-05-10T03:07:52;16.4;73.6
78463;SHT31;67756;51.982;5.648;2023-05-10T03:10:27;16.4;73.8
78463;SHT31;67756;51.982;5.648;2023-05-10T03:13:10;16.4;73.6
78463;SHT31;67756;51.982;5.648;2023-05-10T03:15:51;16.4;73.6
78463;SHT31;67756;51.982;5.648;2023-05-10T03:18:37;16.3;73.6
78463;SHT31;67756;51.982;5.648;2023-05-10T03:21:07;16.3;73.8
78463;SHT31;67756;51.982;5.648;2023-05-10T03:23:42;16.3;73.9
78463;SHT31;67756;51.982;5.648;2023-05-10T03:26:20;16.3;74.2
78463;SHT31;67756;51.982;5.648;2023-05-10T03:28:49;16.3;74.0
78463;SHT31;67756;51.982;5.648;2023-05-10T03:31:19;16.3;74.2
78463;SHT31;67756;51.982;5.648;2023-05-10T03:33:49;16.3;74.6
78463;SHT31;67756;51.982;5.648;2023-05-10T03:36:18;16.3;74.6
78463;SHT31;67756;51.982;5.648;2023-05-10T03:38:47;16.3;74.7
78463;SHT31;67756;51.982;5.648;2023-05-10T03:41:15;16.3;74.7
78463;SHT31;67756;51.982;5.648;2023-05-10T03:43:44;16.3;74.4
78463;SHT31;67756;51.982;5.648;2023-05-10T03:46:12;16.3;73.8
78463;SHT31;67756;51.982;5.648;2023-05-10T03:48:40;16.3;74.3
78463;SHT31;67756;51.982;5.648;2023-05-10T03:51:09;16.3;74.3
78463;SHT31;67756;51.982;5.648;2023-05-10T03:53:37;16.3;74.3
78463;SHT31;67756;51.982;5.648;2023-05-10T03:56:06;16.3;74.3
78463;SHT31;67756;51.982;5.648;2023-05-10T03:58:34;16.4;74.0
78463;SHT31;67756;51.982;5.648;2023-05-10T04:01:04;16.5;73.7
78463;SHT31;67756;51.982;5.648;2023-05-10T04:03:38;16.6;73.4
78463;SHT31;67756;51.982;5.648;2023-05-10T04:06:10;16.7;72.9
78463;SHT31;67756;51.982;5.648;2023-05-10T04:08:38;16.8;72.2
78463;SHT31;67756;51.982;5.648;2023-05-10T04:11:16;17.0;71.3
78463;SHT31;67756;51.982;5.648;2023-05-10T04:13:50;17.1;71.1
78463;SHT31;67756;51.982;5.648;2023-05-10T04:16:20;17.1;70.3
78463;SHT31;67756;51.982;5.648;2023-05-10T04:18:49;17.2;69.7
78463;SHT31;67756;51.982;5.648;2023-05-10T04:21:18;17.3;69.8
78463;SHT31;67756;51.982;5.648;2023-05-10T04:23:47;17.3;69.5
78463;SHT31;67756;51.982;5.648;2023-05-10T04:26:19;17.4;69.2
78463;SHT31;67756;51.982;5.648;2023-05-10T04:28:48;17.4;69.0
78463;SHT31;67756;51.982;5.648;2023-05-10T04:31:17;17.4;69.3
78463;SHT31;67756;51.982;5.648;2023-05-10T04:33:45;17.4;68.6
78463;SHT31;67756;51.982;5.648;2023-05-10T04:36:14;17.4;68.7
78463;SHT31;67756;51.982;5.648;2023-05-10T04:38:42;17.4;68.8
78463;SHT31;67756;51.982;5.648;2023-05-10T04:41:11;17.3;69.0
78463;SHT31;67756;51.982;5.648;2023-05-10T04:43:41;17.3;69.4
78463;SHT31;67756;51.982;5.648;2023-05-10T04:46:10;17.3;69.2
78463;SHT31;67756;51.982;5.648;2023-05-10T04:48:38;17.3;69.4
78463;SHT31;67756;51.982;5.648;2023-05-10T04:51:06;17.3;69.4
78463;SHT31;67756;51.982;5.648;2023-05-10T04:53:35;17.3;69.5
78463;SHT31;67756;51.982;5.648;2023-05-10T04:56:03;17.3;69.1
78463;SHT31;67756;51.982;5.648;2023-05-10T04:58:32;17.3;69.6
78463;SHT31;67756;51.982;5.648;2023-05-10T05:01:06;17.3;69.5
78463;SHT31;67756;51.982;5.648;2023-05-10T05:03:38;17.2;69.8
78463;SHT31;67756;51.982;5.648;2023-05-10T05:06:07;17.2;70.5
78463;SHT31;67756;51.982;5.648;2023-05-10T05:08:36;17.1;70.1
78463;SHT31;67756;51.982;5.648;2023-05-10T05:11:04;17.1;70.9
78463;SHT31;67756;51.982;5.648;2023-05-10T05:13:32;17.1;70.9
78463;SHT31;67756;51.982;5.648;2023-05-10T05:16:02;17.0;71.0
78463;SHT31;67756;51.982;5.648;2023-05-10T05:18:30;17.0;70.9
78463;SHT31;67756;51.982;5.648;2023-05-10T05:20:59;17.0;71.3
78463;SHT31;67756;51.982;5.648;2023-05-10T05:23:27;16.9;70.5
78463;SHT31;67756;51.982;5.648;2023-05-10T05:25:56;16.9;71.0
78463;SHT31;67756;51.982;5.648;2023-05-10T05:28:24;16.9;71.9
78463;SHT31;67756;51.982;5.648;2023-05-10T05:30:55;16.8;72.1
78463;SHT31;67756;51.982;5.648;2023-05-10T05:33:23;16.8;71.5
78463;SHT31;67756;51.982;5.648;2023-05-10T05:35:52;16.8;72.1
78463;SHT31;67756;51.982;5.648;2023-05-10T05:38:22;16.8;72.5
78463;SHT31;67756;51.982;5.648;2023-05-10T05:40:51;16.8;72.0
78463;SHT31;67756;51.982;5.648;2023-05-10T05:43:19;16.7;72.2
78463;SHT31;67756;51.982;5.648;2023-05-10T05:45:48;16.7;72.8
78463;SHT31;67756;51.982;5.648;2023-05-10T05:48:16;16.7;72.9
78463;SHT31;67756;51.982;5.648;2023-05-10T05:50:45;16.7;72.9
78463;SHT31;67756;51.982;5.648;2023-05-10T05:53:13;16.7;72.9
78463;SHT31;67756;51.982;5.648;2023-05-10T05:55:55;16.7;73.5
78463;SHT31;67756;51.982;5.648;2023-05-10T05:58:24;16.7;72.8
78463;SHT31;67756;51.982;5.648;2023-05-10T06:00:55;16.7;73.1
78463;SHT31;67756;51.982;5.648;2023-05-10T06:03:23;16.7;73.3
78463;SHT31;67756;51.982;5.648;2023-05-10T06:05:52;16.7;73.3
78463;SHT31;67756;51.982;5.648;2023-05-10T06:08:21;16.7;72.8
78463;SHT31;67756;51.982;5.648;2023-05-10T06:10:49;16.7;73.3
78463;SHT31;67756;51.982;5.648;2023-05-10T06:13:18;16.7;73.0
78463;SHT31;67756;51.982;5.648;2023-05-10T06:15:46;16.7;72.9
78463;SHT31;67756;51.982;5.648;2023-05-10T06:18:14;16.8;73.1
78463;SHT31;67756;51.982;5.648;2023-05-10T06:20:43;16.8;72.7
78463;SHT31;67756;51.982;5.648;2023-05-10T06:23:13;16.8;72.1
78463;SHT31;67756;51.982;5.648;2023-05-10T06:25:42;16.9;72.1
78463;SHT31;67756;51.982;5.648;2023-05-10T06:28:10;16.9;72.1
78463;SHT31;67756;51.982;5.648;2023-05-10T06:30:39;16.9;72.3
78463;SHT31;67756;51.982;5.648;2023-05-10T06:33:07;16.8;72.3
78463;SHT31;67756;51.982;5.648;2023-05-10T06:35:36;16.8;72.5
78463;SHT31;67756;51.982;5.648;2023-05-10T06:38:06;16.8;72.3
78463;SHT31;67756;51.982;5.648;2023-05-10T06:40:34;16.8;72.5
78463;SHT31;67756;51.982;5.648;2023-05-10T06:43:04;16.7;73.1
78463;SHT31;67756;51.982;5.648;2023-05-10T06:45:33;16.7;72.9
78463;SHT31;67756;51.982;5.648;2023-05-10T06:48:02;16.7;73.3
78463;SHT31;67756;51.982;5.648;2023-05-10T06:50:30;16.7;73.6
78463;SHT31;67756;51.982;5.648;2023-05-10T06:52:59;16.7;73.3
78463;SHT31;67756;51.982;5.648;2023-05-10T06:55:28;16.7;73.2
78463;SHT31;67756;51.982;5.648;2023-05-10T06:57:56;16.7;73.2
78463;SHT31;67756;51.982;5.648;2023-05-10T07:00:25;16.7;73.0
78463;SHT31;67756;51.982;5.648;2023-05-10T07:02:53;16.6;73.3
78463;SHT31;67756;51.982;5.648;2023-05-10T07:05:22;16.6;73.4
78463;SHT31;67756;51.982;5.648;2023-05-10T07:07:50;16.6;73.8
78463;SHT31;67756;51.982;5.648;2023-05-10T07:10:21;16.6;74.1
78463;SHT31;67756;51.982;5.648;2023-05-10T07:12:49;16.6;74.1
78463;SHT31;67756;51.982;5.648;2023-05-10T07:15:18;16.6;73.9
78463;SHT31;67756;51.982;5.648;2023-05-10T07:17:46;16.6;73.5
78463;SHT31;67756;51.982;5.648;2023-05-10T07:20:15;16.6;73.3
78463;SHT31;67756;51.982;5.648;2023-05-10T07:22:44;16.6;74.0
78463;SHT31;67756;51.982;5.648;2023-05-10T07:25:12;16.7;73.3
78463;SHT31;67756;51.982;5.648;2023-05-10T07:27:41;16.7;73.1
78463;SHT31;67756;51.982;5.648;2023-05-10T07:30:10;16.8;72.4
78463;SHT31;67756;51.982;5.648;2023-05-10T07:32:39;16.8;72.6
78463;SHT31;67756;51.982;5.648;2023-05-10T07:35:09;16.9;72.6
78463;SHT31;67756;51.982;5.648;2023-05-10T07:37:37;16.9;71.9
78463;SHT31;67756;51.982;5.648;2023-05-10T07:40:07;16.9;72.0
78463;SHT31;67756;51.982;5.648;2023-05-10T07:42:35;16.9;72.0
78463;SHT31;67756;51.982;5.648;2023-05-10T07:45:05;16.9;71.7
78463;SHT31;67756;51.982;5.648;2023-05-10T07:47:35;16.9;71.1
78463;SHT31;67756;51.982;5.648;2023-05-10T07:50:05;17.0;72.1
78463;SHT31;67756;51.982;5.648;2023-05-10T07:52:35;17.0;71.1
78463;SHT31;67756;51.982;5.648;2023-05-10T07:55:04;17.0;69.8
78463;SHT31;67756;51.982;5.648;2023-05-10T07:57:34;17.0;70.3
78463;SHT31;67756;51.982;5.648;2023-05-10T08:00:03;17.0;69.8
78463;SHT31;67756;51.982;5.648;2023-05-10T08:02:32;16.9;69.3
78463;SHT31;67756;51.982;5.648;2023-05-10T08:05:01;16.9;69.6
78463;SHT31;67756;51.982;5.648;2023-05-10T08:07:30;16.9;70.1
78463;SHT31;67756;51.982;5.648;2023-05-10T08:09:58;16.9;68.9
78463;SHT31;67756;51.982;5.648;2023-05-10T08:12:28;16.9;68.9
78463;SHT31;67756;51.982;5.648;2023-05-10T08:14:57;16.9;68.7
78463;SHT31;67756;51.982;5.648;2023-05-10T08:17:25;16.9;67.6
78463;SHT31;67756;51.982;5.648;2023-05-10T08:19:54;16.8;68.8
78463;SHT31;67756;51.982;5.648;2023-05-10T08:22:22;16.8;69.1
78463;SHT31;67756;51.982;5.648;2023-05-10T08:24:50;16.8;69.2
78463;SHT31;67756;51.982;5.648;2023-05-10T08:27:19;16.8;67.6
78463;SHT31;67756;51.982;5.648;2023-05-10T08:29:48;16.8;68.1
78463;SHT31;67756;51.982;5.648;2023-05-10T08:32:17;16.9;68.8
78463;SHT31;67756;51.982;5.648;2023-05-10T08:34:47;16.9;68.2
78463;SHT31;67756;51.982;5.648;2023-05-10T08:37:15;16.9;69.2
78463;SHT31;67756;51.982;5.648;2023-05-10T08:39:44;16.9;67.6
78463;SHT31;67756;51.982;5.648;2023-05-10T08:42:18;17.0;69.1
78463;SHT31;67756;51.982;5.648;2023-05-10T08:44:48;17.1;67.0
78463;SHT31;67756;51.982;5.648;2023-05-10T08:47:18;17.2;67.9
78463;SHT31;67756;51.982;5.648;2023-05-10T08:49:47;17.4;66.3
78463;SHT31;67756;51.982;5.648;2023-05-10T08:52:18;17.5;67.6
78463;SHT31;67756;51.982;5.648;2023-05-10T08:54:47;17.6;65.2
78463;SHT31;67756;51.982;5.648;2023-05-10T08:57:16;17.7;64.8
78463;SHT31;67756;51.982;5.648;2023-05-10T08:59:45;17.8;64.9
78463;SHT31;67756;51.982;5.648;2023-05-10T09:02:14;17.8;64.4
78463;SHT31;67756;51.982;5.648;2023-05-10T09:04:44;17.8;62.8
78463;SHT31;67756;51.982;5.648;2023-05-10T09:07:13;17.9;63.1
78463;SHT31;67756;51.982;5.648;2023-05-10T09:09:42;17.8;63.2
78463;SHT31;67756;51.982;5.648;2023-05-10T09:12:12;17.8;63.6
78463;SHT31;67756;51.982;5.648;2023-05-10T09:14:44;17.8;63.5
78463;SHT31;67756;51.982;5.648;2023-05-10T09:17:15;17.8;64.2
78463;SHT31;67756;51.982;5.648;2023-05-10T09:19:44;17.8;63.5
78463;SHT31;67756;51.982;5.648;2023-05-10T09:22:13;17.8;64.3
78463;SHT31;67756;51.982;5.648;2023-05-10T09:24:43;17.9;64.1
78463;SHT31;67756;51.982;5.648;2023-05-10T09:27:15;18.0;64.4
78463;SHT31;67756;51.982;5.648;2023-05-10T09:29:44;18.0;64.0
78463;SHT31;67756;51.982;5.648;2023-05-10T09:32:16;18.1;63.7
78463;SHT31;67756;51.982;5.648;2023-05-10T09:34:44;18.2;64.4
78463;SHT31;67756;51.982;5.648;2023-05-10T09:37:13;18.4;63.7
78463;SHT31;67756;51.982;5.648;2023-05-10T09:39:42;18.4;63.7
78463;SHT31;67756;51.982;5.648;2023-05-10T09:42:10;18.5;62.2
78463;SHT31;67756;51.982;5.648;2023-05-10T09:44:39;18.5;62.0
78463;SHT31;67756;51.982;5.648;2023-05-10T09:47:09;18.5;62.2
78463;SHT31;67756;51.982;5.648;2023-05-10T09:49:38;18.5;62.0
78463;SHT31;67756;51.982;5.648;2023-05-10T09:52:07;18.5;62.2
78463;SHT31;67756;51.982;5.648;2023-05-10T09:54:36;18.5;62.6
78463;SHT31;67756;51.982;5.648;2023-05-10T09:57:05;18.6;63.4
78463;SHT31;67756;51.982;5.648;2023-05-10T09:59:33;18.6;60.6
78463;SHT31;67756;51.982;5.648;2023-05-10T10:02:05;18.6;61.9
78463;SHT31;67756;51.982;5.648;2023-05-10T10:04:41;18.5;60.6
78463;SHT31;67756;51.982;5.648;2023-05-10T10:07:09;18.5;60.8
78463;SHT31;67756;51.982;5.648;2023-05-10T10:09:38;18.5;61.6
78463;SHT31;67756;51.982;5.648;2023-05-10T10:12:07;18.4;62.0
78463;SHT31;67756;51.982;5.648;2023-05-10T10:14:36;18.4;62.0
78463;SHT31;67756;51.982;5.648;2023-05-10T10:17:05;18.4;62.8
78463;SHT31;67756;51.982;5.648;2023-05-10T10:19:35;18.4;62.8
78463;SHT31;67756;51.982;5.648;2023-05-10T10:22:04;18.4;62.9
78463;SHT31;67756;51.982;5.648;2023-05-10T10:24:33;18.4;62.5
78463;SHT31;67756;51.982;5.648;2023-05-10T10:27:11;18.4;61.9
78463;SHT31;67756;51.982;5.648;2023-05-10T10:29:49;18.5;62.7
78463;SHT31;67756;51.982;5.648;2023-05-10T10:32:27;18.5;63.3
78463;SHT31;67756;51.982;5.648;2023-05-10T10:34:59;18.5;62.4
78463;SHT31;67756;51.982;5.648;2023-05-10T10:37:43;18.6;61.1
78463;SHT31;67756;51.982;5.648;2023-05-10T10:40:25;18.6;61.4
78463;SHT31;67756;51.982;5.648;2023-05-10T10:42:58;18.6;61.6
78463;SHT31;67756;51.982;5.648;2023-05-10T10:45:31;18.7;61.6
78463;SHT31;67756;51.982;5.648;2023-05-10T10:48:21;18.7;61.1
78463;SHT31;67756;51.982;5.648;2023-05-10T10:50:57;18.7;62.0
78463;SHT31;67756;51.982;5.648;2023-05-10T10:53:28;18.8;62.0
78463;SHT31;67756;51.982;5.648;2023-05-10T10:56:05;18.8;61.6
78463;SHT31;67756;51.982;5.648;2023-05-10T10:58:37;18.8;61.5
78463;SHT31;67756;51.982;5.648;2023-05-10T11:01:23;18.8;61.0
78463;SHT31;67756;51.982;5.648;2023-05-10T11:04:19;18.9;61.7
78463;SHT31;67756;51.982;5.648;2023-05-10T11:06:48;18.9;60.5
78463;SHT31;67756;51.982;5.648;2023-05-10T11:09:19;18.9;61.0
78463;SHT31;67756;51.982;5.648;2023-05-10T11:11:52;18.9;61.2
78463;SHT31;67756;51.982;5.648;2023-05-10T11:14:22;19.0;60.5
78463;SHT31;67756;51.982;5.648;2023-05-10T11:16:51;19.1;60.4
78463;SHT31;67756;51.982;5.648;2023-05-10T11:19:20;19.1;60.1
78463;SHT31;67756;51.982;5.648;2023-05-10T11:21:50;19.1;60.4
78463;SHT31;67756;51.982;5.648;2023-05-10T11:24:22;19.2;59.5
78463;SHT31;67756;51.982;5.648;2023-05-10T11:26:56;19.3;60.2
78463;SHT31;67756;51.982;5.648;2023-05-10T11:29:25;19.4;59.3
78463;SHT31;67756;51.982;5.648;2023-05-10T11:31:57;19.5;60.0
78463;SHT31;67756;51.982;5.648;2023-05-10T11:34:28;19.6;59.4
78463;SHT31;67756;51.982;5.648;2023-05-10T11:36:58;19.6;59.9
78463;SHT31;67756;51.982;5.648;2023-05-10T11:39:31;19.7;59.6
78463;SHT31;67756;51.982;5.648;2023-05-10T11:42:01;19.7;59.2
78463;SHT31;67756;51.982;5.648;2023-05-10T11:44:31;19.7;57.6
78463;SHT31;67756;51.982;5.648;2023-05-10T11:47:01;19.7;58.9
78463;SHT31;67756;51.982;5.648;2023-05-10T11:49:30;19.8;58.9
78463;SHT31;67756;51.982;5.648;2023-05-10T11:52:06;19.8;58.3
78463;SHT31;67756;51.982;5.648;2023-05-10T11:54:35;19.8;59.2
78463;SHT31;67756;51.982;5.648;2023-05-10T11:57:04;19.9;58.2
78463;SHT31;67756;51.982;5.648;2023-05-10T11:59:33;19.9;58.4
78463;SHT31;67756;51.982;5.648;2023-05-10T12:02:03;20.0;58.2
78463;SHT31;67756;51.982;5.648;2023-05-10T12:04:32;20.0;58.3
78463;SHT31;67756;51.982;5.648;2023-05-10T12:07:01;20.1;57.8
78463;SHT31;67756;51.982;5.648;2023-05-10T12:09:30;20.1;59.5
78463;SHT31;67756;51.982;5.648;2023-05-10T12:12:00;20.2;57.3
78463;SHT31;67756;51.982;5.648;2023-05-10T12:14:34;20.3;56.9
78463;SHT31;67756;51.982;5.648;2023-05-10T12:17:03;20.3;57.7
78463;SHT31;67756;51.982;5.648;2023-05-10T12:19:39;20.4;57.1
78463;SHT31;67756;51.982;5.648;2023-05-10T12:22:07;20.4;57.6
78463;SHT31;67756;51.982;5.648;2023-05-10T12:24:37;20.5;55.5
78463;SHT31;67756;51.982;5.648;2023-05-10T12:27:08;20.6;56.8
78463;SHT31;67756;51.982;5.648;2023-05-10T12:29:41;20.6;55.9
78463;SHT31;67756;51.982;5.648;2023-05-10T12:32:11;20.7;55.7
78463;SHT31;67756;51.982;5.648;2023-05-10T12:34:39;20.7;55.8
78463;SHT31;67756;51.982;5.648;2023-05-10T12:37:08;20.8;56.7
78463;SHT31;67756;51.982;5.648;2023-05-10T12:39:41;20.9;54.8
78463;SHT31;67756;51.982;5.648;2023-05-10T12:42:10;21.0;56.8
78463;SHT31;67756;51.982;5.648;2023-05-10T12:44:39;21.0;55.1
78463;SHT31;67756;51.982;5.648;2023-05-10T12:47:08;21.0;54.6
78463;SHT31;67756;51.982;5.648;2023-05-10T12:49:37;21.1;54.0
78463;SHT31;67756;51.982;5.648;2023-05-10T12:52:06;21.1;52.9
78463;SHT31;67756;51.982;5.648;2023-05-10T12:54:34;21.1;55.0
78463;SHT31;67756;51.982;5.648;2023-05-10T12:57:03;21.0;54.7
78463;SHT31;67756;51.982;5.648;2023-05-10T12:59:31;21.0;53.8
78463;SHT31;67756;51.982;5.648;2023-05-10T13:02:00;21.0;54.3
78463;SHT31;67756;51.982;5.648;2023-05-10T13:04:30;20.9;55.6
78463;SHT31;67756;51.982;5.648;2023-05-10T13:07:00;20.8;56.0
78463;SHT31;67756;51.982;5.648;2023-05-10T13:09:29;20.6;56.2
78463;SHT31;67756;51.982;5.648;2023-05-10T13:11:57;20.5;56.9
78463;SHT31;67756;51.982;5.648;2023-05-10T13:14:26;20.2;58.1
78463;SHT31;67756;51.982;5.648;2023-05-10T13:16:54;20.1;59.1
78463;SHT31;67756;51.982;5.648;2023-05-10T13:19:23;19.9;61.5
78463;SHT31;67756;51.982;5.648;2023-05-10T13:21:52;19.8;62.7
78463;SHT31;67756;51.982;5.648;2023-05-10T13:24:20;19.6;64.0
78463;SHT31;67756;51.982;5.648;2023-05-10T13:26:49;19.3;65.0
78463;SHT31;67756;51.982;5.648;2023-05-10T13:29:17;18.9;68.1
78463;SHT31;67756;51.982;5.648;2023-05-10T13:31:47;18.6;69.7
78463;SHT31;67756;51.982;5.648;2023-05-10T13:34:16;18.4;73.0
78463;SHT31;67756;51.982;5.648;2023-05-10T13:36:47;18.2;74.1
78463;SHT31;67756;51.982;5.648;2023-05-10T13:39:16;18.1;74.2
78463;SHT31;67756;51.982;5.648;2023-05-10T13:41:44;18.0;73.8
78463;SHT31;67756;51.982;5.648;2023-05-10T13:44:14;18.0;74.5
78463;SHT31;67756;51.982;5.648;2023-05-10T13:46:45;17.9;73.8
78463;SHT31;67756;51.982;5.648;2023-05-10T13:49:14;17.8;72.3
78463;SHT31;67756;51.982;5.648;2023-05-10T13:51:43;17.6;71.9
78463;SHT31;67756;51.982;5.648;2023-05-10T13:54:11;17.5;71.8
78463;SHT31;67756;51.982;5.648;2023-05-10T13:56:41;17.3;72.4
78463;SHT31;67756;51.982;5.648;2023-05-10T13:59:10;17.2;73.7
78463;SHT31;67756;51.982;5.648;2023-05-10T14:01:40;17.1;73.0
78463;SHT31;67756;51.982;5.648;2023-05-10T14:04:09;17.0;74.7
78463;SHT31;67756;51.982;5.648;2023-05-10T14:06:38;16.9;74.9
78463;SHT31;67756;51.982;5.648;2023-05-10T14:09:06;16.9;75.9
78463;SHT31;67756;51.982;5.648;2023-05-10T14:11:35;16.9;77.9
78463;SHT31;67756;51.982;5.648;2023-05-10T14:14:08;16.9;75.8
78463;SHT31;67756;51.982;5.648;2023-05-10T14:16:36;16.9;76.2
78463;SHT31;67756;51.982;5.648;2023-05-10T14:19:05;16.8;76.6
78463;SHT31;67756;51.982;5.648;2023-05-10T14:21:33;16.8;76.2
78463;SHT31;67756;51.982;5.648;2023-05-10T14:24:02;16.8;74.2
78463;SHT31;67756;51.982;5.648;2023-05-10T14:26:31;16.7;75.7
78463;SHT31;67756;51.982;5.648;2023-05-10T14:29:00;16.7;75.2
78463;SHT31;67756;51.982;5.648;2023-05-10T14:31:29;16.7;75.3
78463;SHT31;67756;51.982;5.648;2023-05-10T14:33:58;16.7;75.6
78463;SHT31;67756;51.982;5.648;2023-05-10T14:36:26;16.7;75.2
78463;SHT31;67756;51.982;5.648;2023-05-10T14:38:55;16.7;75.5
78463;SHT31;67756;51.982;5.648;2023-05-10T14:41:23;16.6;76.1
78463;SHT31;67756;51.982;5.648;2023-05-10T14:43:52;16.6;75.8
78463;SHT31;67756;51.982;5.648;2023-05-10T14:46:20;16.6;75.5
78463;SHT31;67756;51.982;5.648;2023-05-10T14:48:49;16.6;76.7
78463;SHT31;67756;51.982;5.648;2023-05-10T14:51:17;16.6;76.6
78463;SHT31;67756;51.982;5.648;2023-05-10T14:53:48;16.6;77.8
78463;SHT31;67756;51.982;5.648;2023-05-10T14:56:17;16.6;76.4
78463;SHT31;67756;51.982;5.648;2023-05-10T14:58:49;16.6;76.0
78463;SHT31;67756;51.982;5.648;2023-05-10T15:01:17;16.7;77.3
78463;SHT31;67756;51.982;5.648;2023-05-10T15:03:46;16.7;79.9
78463;SHT31;67756;51.982;5.648;2023-05-10T15:06:15;16.8;79.4
78463;SHT31;67756;51.982;5.648;2023-05-10T15:08:44;16.9;76.5
78463;SHT31;67756;51.982;5.648;2023-05-10T15:11:12;17.0;76.5
78463;SHT31;67756;51.982;5.648;2023-05-10T15:13:41;17.0;77.7
78463;SHT31;67756;51.982;5.648;2023-05-10T15:16:09;17.1;79.0
78463;SHT31;67756;51.982;5.648;2023-05-10T15:18:38;17.2;79.7
78463;SHT31;67756;51.982;5.648;2023-05-10T15:21:06;17.3;77.5
78463;SHT31;67756;51.982;5.648;2023-05-10T15:23:35;17.3;77.7
78463;SHT31;67756;51.982;5.648;2023-05-10T15:26:06;17.4;77.8
78463;SHT31;67756;51.982;5.648;2023-05-10T15:28:34;17.6;76.3
78463;SHT31;67756;51.982;5.648;2023-05-10T15:31:02;17.7;76.0
78463;SHT31;67756;51.982;5.648;2023-05-10T15:33:31;17.8;76.9
78463;SHT31;67756;51.982;5.648;2023-05-10T15:36:00;17.8;74.5
78463;SHT31;67756;51.982;5.648;2023-05-10T15:38:30;17.9;75.0
78463;SHT31;67756;51.982;5.648;2023-05-10T15:41:01;17.9;74.8
78463;SHT31;67756;51.982;5.648;2023-05-10T15:43:30;17.9;74.6
78463;SHT31;67756;51.982;5.648;2023-05-10T15:45:58;18.0;72.9
78463;SHT31;67756;51.982;5.648;2023-05-10T15:48:27;18.0;74.2
78463;SHT31;67756;51.982;5.648;2023-05-10T15:50:57;18.0;73.2
78463;SHT31;67756;51.982;5.648;2023-05-10T15:53:26;18.0;73.0
78463;SHT31;67756;51.982;5.648;2023-05-10T15:55:54;18.0;72.9
78463;SHT31;67756;51.982;5.648;2023-05-10T15:58:23;18.0;72.9
78463;SHT31;67756;51.982;5.648;2023-05-10T16:00:51;18.0;70.7
78463;SHT31;67756;51.982;5.648;2023-05-10T16:03:20;18.0;70.8
78463;SHT31;67756;51.982;5.648;2023-05-10T16:05:48;18.0;71.3
78463;SHT31;67756;51.982;5.648;2023-05-10T16:08:17;18.0;72.9
78463;SHT31;67756;51.982;5.648;2023-05-10T16:10:45;18.0;71.8
78463;SHT31;67756;51.982;5.648;2023-05-10T16:13:16;18.0;72.4
78463;SHT31;67756;51.982;5.648;2023-05-10T16:15:45;18.1;72.0
78463;SHT31;67756;51.982;5.648;2023-05-10T16:18:13;18.2;71.5
78463;SHT31;67756;51.982;5.648;2023-05-10T16:20:43;18.2;71.7
78463;SHT31;67756;51.982;5.648;2023-05-10T16:23:12;18.3;69.8